PWSweather.com
Personal Weather Stations
Station Observations
AC5JC
Greenleaf Peninsula, Waco, Waco, TX 76710

Greenleaf Peninsula, WacoWaco, TX 76710

Lat: 31.565, Lon: -97.198

Elevation: 570

Station Type: Ambient WS-1400IP

http://ac5jc.dyndns.org

High Low Average
Temperature 102.4°F39.1°C 73.6°F23.1°C 83.3°F28.5°C
Dew Point 75.7°F24.3°C 57.6°F14.2°C 67.5°F19.7°C
Winds 11.7 mph 18.8 kmh Calm Calm 1.0 mph SW1.6 kmh SW
Wind Gusts 24.8 mph39.9 kmh -- 4.0 mph6.4 kmh
Humidity 94% 24% 63%
Pressure 29.47 in998.0 mb 29.32 in992.9 mb -
Precipitation 0.00 in0.0 mm - -
Hour Temp Dew Point Humidity Winds Wind Gusts Pressure Precip Precip Rate Daily Precip Total
12:00 AM 85.8°F29.9°C 67.7°F19.8°C 55% 7.7 mph SSE12.4 kmh SSE 9.8 mph15.8 kmh 29.37 in994.6 mb 0.00 in0.0 mm 0.00 in0.0 mm 0.00 in0.0 mm
12:05 AM 85.7°F29.8°C 67.6°F19.8°C 55% 9.5 mph SSE15.3 kmh SSE 17.4 mph28.0 kmh 29.37 in994.6 mb 0.00 in0.0 mm 0.00 in0.0 mm 0.00 in0.0 mm
12:10 AM 85.6°F29.8°C 67.5°F19.7°C 55% 8.9 mph SSE14.3 kmh SSE 12.3 mph19.8 kmh 29.37 in994.6 mb 0.00 in0.0 mm 0.00 in0.0 mm 0.00 in0.0 mm
12:15 AM 85.5°F29.7°C 67.5°F19.7°C 55% 4.9 mph SSE7.9 kmh SSE 7.4 mph11.9 kmh 29.37 in994.6 mb 0.00 in0.0 mm 0.00 in0.0 mm 0.00 in0.0 mm
12:20 AM 85.4°F29.7°C 67.3°F19.6°C 55% 8.4 mph SSE13.5 kmh SSE 15.0 mph24.1 kmh 29.38 in994.9 mb 0.00 in0.0 mm 0.00 in0.0 mm 0.00 in0.0 mm
12:25 AM 85.2°F29.6°C 67.2°F19.6°C 55% 9.0 mph SSE14.5 kmh SSE 15.0 mph24.1 kmh 29.38 in994.9 mb 0.00 in0.0 mm 0.00 in0.0 mm 0.00 in0.0 mm
12:30 AM 85.1°F29.5°C 66.6°F19.2°C 54% 7.7 mph S12.4 kmh S 12.3 mph19.8 kmh 29.37 in994.6 mb 0.00 in0.0 mm 0.00 in0.0 mm 0.00 in0.0 mm
12:35 AM 85.0°F29.4°C 66.5°F19.2°C 54% 2.7 mph SSW4.3 kmh SSW 7.4 mph11.9 kmh 29.37 in994.6 mb 0.00 in0.0 mm 0.00 in0.0 mm 0.00 in0.0 mm
12:40 AM 84.9°F29.4°C 66.4°F19.1°C 54% 4.3 mph SSW6.9 kmh SSW 12.3 mph19.8 kmh 29.38 in994.9 mb 0.00 in0.0 mm 0.00 in0.0 mm 0.00 in0.0 mm
12:45 AM 84.7°F29.3°C 66.2°F19.0°C 54% 5.4 mph SSE8.7 kmh SSE 9.8 mph15.8 kmh 29.38 in994.9 mb 0.00 in0.0 mm 0.00 in0.0 mm 0.00 in0.0 mm
12:50 AM 84.7°F29.3°C 66.2°F19.0°C 54% 9.6 mph SSE15.4 kmh SSE 19.9 mph32.0 kmh 29.38 in994.9 mb 0.00 in0.0 mm 0.00 in0.0 mm 0.00 in0.0 mm
12:55 AM 84.6°F29.2°C 66.1°F18.9°C 54% 6.1 mph S9.8 kmh S 9.8 mph15.8 kmh 29.37 in994.6 mb 0.00 in0.0 mm 0.00 in0.0 mm 0.00 in0.0 mm
01:00 AM 84.6°F29.2°C 66.1°F18.9°C 54% 7.1 mph SSE11.4 kmh SSE 9.8 mph15.8 kmh 29.37 in994.6 mb 0.00 in0.0 mm 0.00 in0.0 mm 0.00 in0.0 mm
01:05 AM 84.4°F29.1°C 66.3°F19.1°C 55% 5.7 mph S9.2 kmh S 15.0 mph24.1 kmh 29.38 in994.9 mb 0.00 in0.0 mm 0.00 in0.0 mm 0.00 in0.0 mm
01:10 AM 84.4°F29.1°C 66.6°F19.2°C 55% 3.1 mph S5.0 kmh S 4.9 mph7.9 kmh 29.37 in994.6 mb 0.00 in0.0 mm 0.00 in0.0 mm 0.00 in0.0 mm
01:15 AM 84.2°F29.0°C 66.9°F19.4°C 56% 2.4 mph S3.9 kmh S 4.9 mph7.9 kmh 29.38 in994.9 mb 0.00 in0.0 mm 0.00 in0.0 mm 0.00 in0.0 mm
01:20 AM 84.1°F28.9°C 67.2°F19.6°C 57% 11.7 mph S18.8 kmh S 19.9 mph32.0 kmh 29.38 in994.9 mb 0.00 in0.0 mm 0.00 in0.0 mm 0.00 in0.0 mm
01:25 AM 84.0°F28.9°C 67.1°F19.5°C 57% 8.0 mph SE12.9 kmh SE 15.0 mph24.1 kmh 29.38 in994.9 mb 0.00 in0.0 mm 0.00 in0.0 mm 0.00 in0.0 mm
01:30 AM 83.8°F28.8°C 67.4°F19.7°C 58% 8.3 mph S13.4 kmh S 17.4 mph28.0 kmh 29.38 in994.9 mb 0.00 in0.0 mm 0.00 in0.0 mm 0.00 in0.0 mm
01:35 AM 83.7°F28.7°C 67.4°F19.7°C 58% 7.1 mph S11.4 kmh S 12.3 mph19.8 kmh 29.38 in994.9 mb 0.00 in0.0 mm 0.00 in0.0 mm 0.00 in0.0 mm
01:40 AM 83.5°F28.6°C 67.6°F19.8°C 59% 5.5 mph SW8.9 kmh SW 7.4 mph11.9 kmh 29.38 in994.9 mb 0.00 in0.0 mm 0.00 in0.0 mm 0.00 in0.0 mm
01:45 AM 83.4°F28.6°C 67.6°F19.8°C 59% 8.2 mph ESE13.2 kmh ESE 22.4 mph36.0 kmh 29.38 in994.9 mb 0.00 in0.0 mm 0.00 in0.0 mm 0.00 in0.0 mm
01:50 AM 83.3°F28.5°C 67.9°F19.9°C 60% 7.6 mph S12.2 kmh S 24.8 mph39.9 kmh 29.38 in994.9 mb 0.00 in0.0 mm 0.00 in0.0 mm 0.00 in0.0 mm
01:55 AM 83.1°F28.4°C 67.9°F19.9°C 60% 5.6 mph SSE9.0 kmh SSE 9.8 mph15.8 kmh 29.38 in994.9 mb 0.00 in0.0 mm 0.00 in0.0 mm 0.00 in0.0 mm
02:00 AM 83.0°F28.3°C 68.1°F20.1°C 61% 8.2 mph SSE13.2 kmh SSE 12.3 mph19.8 kmh 29.39 in995.3 mb 0.00 in0.0 mm 0.00 in0.0 mm 0.00 in0.0 mm
02:05 AM 82.9°F28.3°C 68.3°F20.2°C 62% 2.4 mph SSW3.9 kmh SSW 4.9 mph7.9 kmh 29.39 in995.3 mb 0.00 in0.0 mm 0.00 in0.0 mm 0.00 in0.0 mm
02:10 AM 82.8°F28.2°C 68.5°F20.3°C 62% 2.5 mph W4.0 kmh W 4.9 mph7.9 kmh 29.39 in995.3 mb 0.00 in0.0 mm 0.00 in0.0 mm 0.00 in0.0 mm
02:15 AM 82.5°F28.1°C 68.6°F20.3°C 63% 1.9 mph SW3.1 kmh SW 7.4 mph11.9 kmh 29.40 in995.6 mb 0.00 in0.0 mm 0.00 in0.0 mm 0.00 in0.0 mm
02:20 AM 82.2°F27.9°C 68.8°F20.4°C 64% 2.6 mph SSW4.2 kmh SSW 7.4 mph11.9 kmh 29.39 in995.3 mb 0.00 in0.0 mm 0.00 in0.0 mm 0.00 in0.0 mm
02:25 AM 82.1°F27.8°C 68.7°F20.4°C 64% 5.9 mph S9.5 kmh S 12.3 mph19.8 kmh 29.39 in995.3 mb 0.00 in0.0 mm 0.00 in0.0 mm 0.00 in0.0 mm
02:30 AM 81.9°F27.7°C 69.0°F20.6°C 65% 0.7 mph SW1.1 kmh SW 2.5 mph4.0 kmh 29.39 in995.3 mb 0.00 in0.0 mm 0.00 in0.0 mm 0.00 in0.0 mm
02:35 AM 81.8°F27.7°C 69.0°F20.6°C 65% 3.4 mph S5.5 kmh S 7.4 mph11.9 kmh 29.39 in995.3 mb 0.00 in0.0 mm 0.00 in0.0 mm 0.00 in0.0 mm
02:40 AM 81.7°F27.6°C 69.2°F20.7°C 66% 2.3 mph SW3.7 kmh SW 7.4 mph11.9 kmh 29.39 in995.3 mb 0.00 in0.0 mm 0.00 in0.0 mm 0.00 in0.0 mm
02:45 AM 81.5°F27.5°C 69.0°F20.6°C 66% 2.7 mph S4.3 kmh S 7.4 mph11.9 kmh 29.40 in995.6 mb 0.00 in0.0 mm 0.00 in0.0 mm 0.00 in0.0 mm
02:50 AM 81.4°F27.4°C 69.4°F20.8°C 67% 1.4 mph SSW2.3 kmh SSW 4.9 mph7.9 kmh 29.39 in995.3 mb 0.00 in0.0 mm 0.00 in0.0 mm 0.00 in0.0 mm
02:55 AM 81.3°F27.4°C 69.3°F20.7°C 67% 2.2 mph SE3.5 kmh SE 7.4 mph11.9 kmh 29.39 in995.3 mb 0.00 in0.0 mm 0.00 in0.0 mm 0.00 in0.0 mm
03:00 AM 81.2°F27.3°C 69.1°F20.6°C 67% 2.3 mph S3.7 kmh S 4.9 mph7.9 kmh 29.39 in995.3 mb 0.00 in0.0 mm 0.00 in0.0 mm 0.00 in0.0 mm
03:05 AM 81.1°F27.3°C 69.4°F20.8°C 68% 3.3 mph S5.3 kmh S 7.4 mph11.9 kmh 29.39 in995.3 mb 0.00 in0.0 mm 0.00 in0.0 mm 0.00 in0.0 mm
03:10 AM 81.1°F27.3°C 69.5°F20.8°C 68% 2.5 mph S4.0 kmh S 7.4 mph11.9 kmh 29.38 in994.9 mb 0.00 in0.0 mm 0.00 in0.0 mm 0.00 in0.0 mm
03:15 AM 81.0°F27.2°C 69.4°F20.8°C 68% 0.7 mph SW1.1 kmh SW 4.9 mph7.9 kmh 29.39 in995.3 mb 0.00 in0.0 mm 0.00 in0.0 mm 0.00 in0.0 mm
03:20 AM 81.0°F27.2°C 69.4°F20.8°C 68% 1.3 mph SW2.1 kmh SW 2.5 mph4.0 kmh 29.39 in995.3 mb 0.00 in0.0 mm 0.00 in0.0 mm 0.00 in0.0 mm
03:25 AM 80.8°F27.1°C 69.4°F20.8°C 68% 2.0 mph S3.2 kmh S 2.5 mph4.0 kmh 29.39 in995.3 mb 0.00 in0.0 mm 0.00 in0.0 mm 0.00 in0.0 mm
03:30 AM 80.7°F27.1°C 69.6°F20.9°C 69% 1.3 mph SW2.1 kmh SW 4.9 mph7.9 kmh 29.39 in995.3 mb 0.00 in0.0 mm 0.00 in0.0 mm 0.00 in0.0 mm
03:35 AM 80.6°F27.0°C 69.9°F21.1°C 70% 2.1 mph S3.4 kmh S 7.4 mph11.9 kmh 29.39 in995.3 mb 0.00 in0.0 mm 0.00 in0.0 mm 0.00 in0.0 mm
03:40 AM 80.4°F26.9°C 69.7°F20.9°C 70% 2.5 mph SW4.0 kmh SW 9.8 mph15.8 kmh 29.39 in995.3 mb 0.00 in0.0 mm 0.00 in0.0 mm 0.00 in0.0 mm
03:45 AM 80.4°F26.9°C 69.7°F20.9°C 70% 2.8 mph S4.5 kmh S 7.4 mph11.9 kmh 29.39 in995.3 mb 0.00 in0.0 mm 0.00 in0.0 mm 0.00 in0.0 mm
03:50 AM 80.2°F26.8°C 69.6°F20.9°C 70% 4.8 mph S7.7 kmh S 9.8 mph15.8 kmh 29.39 in995.3 mb 0.00 in0.0 mm 0.00 in0.0 mm 0.00 in0.0 mm
03:55 AM 80.2°F26.8°C 69.5°F20.8°C 70% 1.4 mph SSE2.3 kmh SSE 4.9 mph7.9 kmh 29.39 in995.3 mb 0.00 in0.0 mm 0.00 in0.0 mm 0.00 in0.0 mm
04:00 AM 80.1°F26.7°C 69.4°F20.8°C 70% 0.1 mph SW0.2 kmh SW 2.5 mph4.0 kmh 29.39 in995.3 mb 0.00 in0.0 mm 0.00 in0.0 mm 0.00 in0.0 mm
04:05 AM 79.9°F26.6°C 69.2°F20.7°C 70% 1.6 mph S2.6 kmh S 4.9 mph7.9 kmh 29.39 in995.3 mb 0.00 in0.0 mm 0.00 in0.0 mm 0.00 in0.0 mm
04:10 AM 79.7°F26.5°C 69.0°F20.6°C 70% 1.5 mph SW2.4 kmh SW 2.5 mph4.0 kmh 29.38 in994.9 mb 0.00 in0.0 mm 0.00 in0.0 mm 0.00 in0.0 mm
04:15 AM 79.6°F26.4°C 68.9°F20.5°C 70% 1.4 mph SSW2.3 kmh SSW 4.9 mph7.9 kmh 29.38 in994.9 mb 0.00 in0.0 mm 0.00 in0.0 mm 0.00 in0.0 mm
04:20 AM 79.4°F26.3°C 68.7°F20.4°C 70% 0.9 mph WSW1.4 kmh WSW 2.5 mph4.0 kmh 29.39 in995.3 mb 0.00 in0.0 mm 0.00 in0.0 mm 0.00 in0.0 mm
04:25 AM 79.3°F26.3°C 68.6°F20.3°C 70% 0.3 mph SSW0.5 kmh SSW 2.5 mph4.0 kmh 29.39 in995.3 mb 0.00 in0.0 mm 0.00 in0.0 mm 0.00 in0.0 mm
04:30 AM 79.3°F26.3°C 68.6°F20.3°C 70% Calm Calm -- 29.39 in995.3 mb 0.00 in0.0 mm 0.00 in0.0 mm 0.00 in0.0 mm
04:35 AM 79.2°F26.2°C 68.6°F20.3°C 70% 0.3 mph WSW0.5 kmh WSW 2.5 mph4.0 kmh 29.39 in995.3 mb 0.00 in0.0 mm 0.00 in0.0 mm 0.00 in0.0 mm
04:40 AM 79.2°F26.2°C 69.0°F20.6°C 71% 0.5 mph SSW0.8 kmh SSW 2.5 mph4.0 kmh 29.39 in995.3 mb 0.00 in0.0 mm 0.00 in0.0 mm 0.00 in0.0 mm
04:45 AM 79.0°F26.1°C 68.8°F20.4°C 71% 2.8 mph S4.5 kmh S 7.4 mph11.9 kmh 29.39 in995.3 mb 0.00 in0.0 mm 0.00 in0.0 mm 0.00 in0.0 mm
04:50 AM 79.0°F26.1°C 68.9°F20.5°C 71% 0.7 mph SW1.1 kmh SW 2.5 mph4.0 kmh 29.39 in995.3 mb 0.00 in0.0 mm 0.00 in0.0 mm 0.00 in0.0 mm
04:55 AM 78.8°F26.0°C 69.0°F20.6°C 72% 0.1 mph WSW0.2 kmh WSW 2.5 mph4.0 kmh 29.39 in995.3 mb 0.00 in0.0 mm 0.00 in0.0 mm 0.00 in0.0 mm
05:00 AM 78.8°F26.0°C 69.0°F20.6°C 72% 1.7 mph SSW2.7 kmh SSW 7.4 mph11.9 kmh 29.39 in995.3 mb 0.00 in0.0 mm 0.00 in0.0 mm 0.00 in0.0 mm
05:05 AM 78.6°F25.9°C 68.8°F20.4°C 72% 0.1 mph WSW0.2 kmh WSW 2.5 mph4.0 kmh 29.39 in995.3 mb 0.00 in0.0 mm 0.00 in0.0 mm 0.00 in0.0 mm
05:10 AM 78.6°F25.9°C 68.8°F20.4°C 72% 0.1 mph SSW0.2 kmh SSW 2.5 mph4.0 kmh 29.39 in995.3 mb 0.00 in0.0 mm 0.00 in0.0 mm 0.00 in0.0 mm
05:15 AM 78.6°F25.9°C 68.8°F20.4°C 72% 0.5 mph SSW0.8 kmh SSW 2.5 mph4.0 kmh 29.39 in995.3 mb 0.00 in0.0 mm 0.00 in0.0 mm 0.00 in0.0 mm
05:20 AM 78.6°F25.9°C 68.9°F20.5°C 72% 0.3 mph SW0.5 kmh SW 2.5 mph4.0 kmh 29.39 in995.3 mb 0.00 in0.0 mm 0.00 in0.0 mm 0.00 in0.0 mm
05:25 AM 78.6°F25.9°C 69.2°F20.7°C 73% 2.0 mph S3.2 kmh S 7.4 mph11.9 kmh 29.39 in995.3 mb 0.00 in0.0 mm 0.00 in0.0 mm 0.00 in0.0 mm
05:30 AM 78.6°F25.9°C 69.2°F20.7°C 73% 0.4 mph SW0.6 kmh SW 2.5 mph4.0 kmh 29.39 in995.3 mb 0.00 in0.0 mm 0.00 in0.0 mm 0.00 in0.0 mm
05:35 AM 78.5°F25.8°C 69.2°F20.7°C 73% 0.3 mph S0.5 kmh S 2.5 mph4.0 kmh 29.39 in995.3 mb 0.00 in0.0 mm 0.00 in0.0 mm 0.00 in0.0 mm
05:40 AM 78.4°F25.8°C 69.0°F20.6°C 73% 0.1 mph SSW0.2 kmh SSW 2.5 mph4.0 kmh 29.39 in995.3 mb 0.00 in0.0 mm 0.00 in0.0 mm 0.00 in0.0 mm
05:45 AM 78.2°F25.7°C 68.8°F20.4°C 73% 1.2 mph SW1.9 kmh SW 4.9 mph7.9 kmh 29.39 in995.3 mb 0.00 in0.0 mm 0.00 in0.0 mm 0.00 in0.0 mm
05:50 AM 77.9°F25.5°C 68.5°F20.3°C 73% 2.6 mph SSE4.2 kmh SSE 7.4 mph11.9 kmh 29.39 in995.3 mb 0.00 in0.0 mm 0.00 in0.0 mm 0.00 in0.0 mm
05:55 AM 77.6°F25.3°C 68.3°F20.2°C 73% 0.9 mph S1.4 kmh S 2.5 mph4.0 kmh 29.39 in995.3 mb 0.00 in0.0 mm 0.00 in0.0 mm 0.00 in0.0 mm
06:00 AM 77.5°F25.3°C 68.1°F20.1°C 73% 2.2 mph S3.5 kmh S 4.9 mph7.9 kmh 29.39 in995.3 mb 0.00 in0.0 mm 0.00 in0.0 mm 0.00 in0.0 mm
06:05 AM 77.2°F25.1°C 67.9°F19.9°C 73% 0.9 mph SSW1.4 kmh SSW 2.5 mph4.0 kmh 29.39 in995.3 mb 0.00 in0.0 mm 0.00 in0.0 mm 0.00 in0.0 mm
06:10 AM 77.2°F25.1°C 67.9°F19.9°C 73% 2.0 mph S3.2 kmh S 4.9 mph7.9 kmh 29.39 in995.3 mb 0.00 in0.0 mm 0.00 in0.0 mm 0.00 in0.0 mm
06:15 AM 77.2°F25.1°C 68.0°F20.0°C 73% 1.0 mph S1.6 kmh S 4.9 mph7.9 kmh 29.39 in995.3 mb 0.00 in0.0 mm 0.00 in0.0 mm 0.00 in0.0 mm
06:20 AM 77.2°F25.1°C 68.3°F20.2°C 74% 0.6 mph S1.0 kmh S 2.5 mph4.0 kmh 29.39 in995.3 mb 0.00 in0.0 mm 0.00 in0.0 mm 0.00 in0.0 mm
06:25 AM 77.2°F25.1°C 68.3°F20.2°C 74% 2.8 mph SSE4.5 kmh SSE 4.9 mph7.9 kmh 29.39 in995.3 mb 0.00 in0.0 mm 0.00 in0.0 mm 0.00 in0.0 mm
06:30 AM 77.2°F25.1°C 68.3°F20.2°C 74% 1.1 mph S1.8 kmh S 2.5 mph4.0 kmh 29.39 in995.3 mb 0.00 in0.0 mm 0.00 in0.0 mm 0.00 in0.0 mm
06:35 AM 77.2°F25.1°C 68.3°F20.2°C 74% 0.3 mph SSW0.5 kmh SSW 2.5 mph4.0 kmh 29.40 in995.6 mb 0.00 in0.0 mm 0.00 in0.0 mm 0.00 in0.0 mm
06:40 AM 77.2°F25.1°C 68.3°F20.2°C 74% 2.1 mph S3.4 kmh S 4.9 mph7.9 kmh 29.40 in995.6 mb 0.00 in0.0 mm 0.00 in0.0 mm 0.00 in0.0 mm
06:45 AM 77.2°F25.1°C 68.3°F20.2°C 74% 1.4 mph S2.3 kmh S 4.9 mph7.9 kmh 29.41 in995.9 mb 0.00 in0.0 mm 0.00 in0.0 mm 0.00 in0.0 mm
06:50 AM 77.2°F25.1°C 68.3°F20.2°C 74% 0.7 mph SSW1.1 kmh SSW 2.5 mph4.0 kmh 29.41 in995.9 mb 0.00 in0.0 mm 0.00 in0.0 mm 0.00 in0.0 mm
06:55 AM 77.2°F25.1°C 68.5°F20.3°C 75% 1.0 mph S1.6 kmh S 4.9 mph7.9 kmh 29.41 in995.9 mb 0.00 in0.0 mm 0.00 in0.0 mm 0.00 in0.0 mm
07:00 AM 77.2°F25.1°C 68.6°F20.3°C 75% 2.9 mph S4.7 kmh S 4.9 mph7.9 kmh 29.41 in995.9 mb 0.00 in0.0 mm 0.00 in0.0 mm 0.00 in0.0 mm
07:05 AM 77.2°F25.1°C 68.3°F20.2°C 74% 1.2 mph SSE1.9 kmh SSE 4.9 mph7.9 kmh 29.42 in996.3 mb 0.00 in0.0 mm 0.00 in0.0 mm 0.00 in0.0 mm
07:10 AM 77.2°F25.1°C 68.3°F20.2°C 74% 1.9 mph SE3.1 kmh SE 4.9 mph7.9 kmh 29.42 in996.3 mb 0.00 in0.0 mm 0.00 in0.0 mm 0.00 in0.0 mm
07:15 AM 77.2°F25.1°C 68.3°F20.2°C 74% 1.9 mph S3.1 kmh S 4.9 mph7.9 kmh 29.42 in996.3 mb 0.00 in0.0 mm 0.00 in0.0 mm 0.00 in0.0 mm
07:20 AM 77.2°F25.1°C 68.3°F20.2°C 74% 2.6 mph S4.2 kmh S 4.9 mph7.9 kmh 29.42 in996.3 mb 0.00 in0.0 mm 0.00 in0.0 mm 0.00 in0.0 mm
07:25 AM 77.2°F25.1°C 67.9°F19.9°C 73% 2.5 mph S4.0 kmh S 4.9 mph7.9 kmh 29.42 in996.3 mb 0.00 in0.0 mm 0.00 in0.0 mm 0.00 in0.0 mm
07:30 AM 77.2°F25.1°C 67.9°F19.9°C 73% 2.1 mph SSE3.4 kmh SSE 4.9 mph7.9 kmh 29.42 in996.3 mb 0.00 in0.0 mm 0.00 in0.0 mm 0.00 in0.0 mm
07:35 AM 77.2°F25.1°C 67.9°F19.9°C 73% 2.5 mph S4.0 kmh S 4.9 mph7.9 kmh 29.41 in995.9 mb 0.00 in0.0 mm 0.00 in0.0 mm 0.00 in0.0 mm
07:40 AM 77.3°F25.2°C 67.9°F19.9°C 73% 3.3 mph SE5.3 kmh SE 7.4 mph11.9 kmh 29.42 in996.3 mb 0.00 in0.0 mm 0.00 in0.0 mm 0.00 in0.0 mm
07:45 AM 77.5°F25.3°C 68.1°F20.1°C 73% 1.0 mph SE1.6 kmh SE 4.9 mph7.9 kmh 29.42 in996.3 mb 0.00 in0.0 mm 0.00 in0.0 mm 0.00 in0.0 mm
07:50 AM 77.7°F25.4°C 68.3°F20.2°C 73% 0.9 mph S1.4 kmh S 2.5 mph4.0 kmh 29.42 in996.3 mb 0.00 in0.0 mm 0.00 in0.0 mm 0.00 in0.0 mm
07:55 AM 78.0°F25.6°C 68.2°F20.1°C 72% 3.2 mph SSE5.1 kmh SSE 7.4 mph11.9 kmh 29.42 in996.3 mb 0.00 in0.0 mm 0.00 in0.0 mm 0.00 in0.0 mm
08:00 AM 78.2°F25.7°C 68.4°F20.2°C 72% 1.7 mph S2.7 kmh S 4.9 mph7.9 kmh 29.43 in996.6 mb 0.00 in0.0 mm 0.00 in0.0 mm 0.00 in0.0 mm
08:05 AM 78.5°F25.8°C 68.0°F20.0°C 70% 4.6 mph S7.4 kmh S 9.8 mph15.8 kmh 29.43 in996.6 mb 0.00 in0.0 mm 0.00 in0.0 mm 0.00 in0.0 mm
08:10 AM 78.6°F25.9°C 68.0°F20.0°C 70% 3.5 mph S5.6 kmh S 4.9 mph7.9 kmh 29.43 in996.6 mb 0.00 in0.0 mm 0.00 in0.0 mm 0.00 in0.0 mm
08:15 AM 78.6°F25.9°C 68.0°F20.0°C 70% 3.3 mph S5.3 kmh S 7.4 mph11.9 kmh 29.43 in996.6 mb 0.00 in0.0 mm 0.00 in0.0 mm 0.00 in0.0 mm
08:20 AM 78.8°F26.0°C 67.9°F19.9°C 69% 1.0 mph S1.6 kmh S 4.9 mph7.9 kmh 29.44 in997.0 mb 0.00 in0.0 mm 0.00 in0.0 mm 0.00 in0.0 mm
08:25 AM 78.9°F26.1°C 67.8°F19.9°C 69% 1.6 mph S2.6 kmh S 4.9 mph7.9 kmh 29.44 in997.0 mb 0.00 in0.0 mm 0.00 in0.0 mm 0.00 in0.0 mm
08:30 AM 79.0°F26.1°C 67.9°F19.9°C 69% Calm Calm -- 29.44 in997.0 mb 0.00 in0.0 mm 0.00 in0.0 mm 0.00 in0.0 mm
08:35 AM 79.2°F26.2°C 67.9°F19.9°C 68% 1.5 mph S2.4 kmh S 4.9 mph7.9 kmh 29.44 in997.0 mb 0.00 in0.0 mm 0.00 in0.0 mm 0.00 in0.0 mm
08:40 AM 79.3°F26.3°C 67.7°F19.8°C 68% 3.0 mph SW4.8 kmh SW 4.9 mph7.9 kmh 29.45 in997.3 mb 0.00 in0.0 mm 0.00 in0.0 mm 0.00 in0.0 mm
08:45 AM 79.6°F26.4°C 67.5°F19.7°C 67% 1.3 mph SSW2.1 kmh SSW 2.5 mph4.0 kmh 29.44 in997.0 mb 0.00 in0.0 mm 0.00 in0.0 mm 0.00 in0.0 mm
08:50 AM 79.9°F26.6°C 67.4°F19.7°C 66% 0.1 mph SW0.2 kmh SW 2.5 mph4.0 kmh 29.44 in997.0 mb 0.00 in0.0 mm 0.00 in0.0 mm 0.00 in0.0 mm
08:55 AM 80.2°F26.8°C 67.2°F19.6°C 65% Calm Calm -- 29.45 in997.3 mb 0.00 in0.0 mm 0.00 in0.0 mm 0.00 in0.0 mm
09:00 AM 80.5°F26.9°C 67.1°F19.5°C 64% 1.3 mph S2.1 kmh S 4.9 mph7.9 kmh 29.44 in997.0 mb 0.00 in0.0 mm 0.00 in0.0 mm 0.00 in0.0 mm
09:05 AM 80.8°F27.1°C 67.4°F19.7°C 64% 0.7 mph SSE1.1 kmh SSE 2.5 mph4.0 kmh 29.45 in997.3 mb 0.00 in0.0 mm 0.00 in0.0 mm 0.00 in0.0 mm
09:10 AM 81.0°F27.2°C 67.5°F19.7°C 64% 0.4 mph WSW0.6 kmh WSW 2.5 mph4.0 kmh 29.45 in997.3 mb 0.00 in0.0 mm 0.00 in0.0 mm 0.00 in0.0 mm
09:15 AM 81.1°F27.3°C 67.6°F19.8°C 64% 0.7 mph WSW1.1 kmh WSW 2.5 mph4.0 kmh 29.45 in997.3 mb 0.00 in0.0 mm 0.00 in0.0 mm 0.00 in0.0 mm
09:20 AM 81.1°F27.3°C 67.3°F19.6°C 63% 0.5 mph WSW0.8 kmh WSW 2.5 mph4.0 kmh 29.45 in997.3 mb 0.00 in0.0 mm 0.00 in0.0 mm 0.00 in0.0 mm
09:25 AM 81.2°F27.3°C 67.4°F19.7°C 63% 0.8 mph WSW1.3 kmh WSW 4.9 mph7.9 kmh 29.45 in997.3 mb 0.00 in0.0 mm 0.00 in0.0 mm 0.00 in0.0 mm
09:30 AM 81.4°F27.4°C 66.9°F19.4°C 62% 0.4 mph WSW0.6 kmh WSW 2.5 mph4.0 kmh 29.46 in997.6 mb 0.00 in0.0 mm 0.00 in0.0 mm 0.00 in0.0 mm
09:35 AM 81.9°F27.7°C 66.2°F19.0°C 59% 0.2 mph WSW0.3 kmh WSW 2.5 mph4.0 kmh 29.46 in997.6 mb 0.00 in0.0 mm 0.00 in0.0 mm 0.00 in0.0 mm
09:40 AM 82.3°F27.9°C 66.3°F19.1°C 59% Calm Calm -- 29.46 in997.6 mb 0.00 in0.0 mm 0.00 in0.0 mm 0.00 in0.0 mm
09:45 AM 82.7°F28.2°C 65.9°F18.8°C 57% 0.1 mph WSW0.2 kmh WSW 2.5 mph4.0 kmh 29.46 in997.6 mb 0.00 in0.0 mm 0.00 in0.0 mm 0.00 in0.0 mm
09:50 AM 83.1°F28.4°C 66.1°F18.9°C 57% 0.3 mph SW0.5 kmh SW 2.5 mph4.0 kmh 29.46 in997.6 mb 0.00 in0.0 mm 0.00 in0.0 mm 0.00 in0.0 mm
09:55 AM 83.4°F28.6°C 66.6°F19.2°C 57% Calm Calm -- 29.46 in997.6 mb 0.00 in0.0 mm 0.00 in0.0 mm 0.00 in0.0 mm
10:00 AM 83.7°F28.7°C 66.8°F19.3°C 57% 0.1 mph SW0.2 kmh SW 2.5 mph4.0 kmh 29.45 in997.3 mb 0.00 in0.0 mm 0.00 in0.0 mm 0.00 in0.0 mm
10:05 AM 83.7°F28.7°C 66.6°F19.2°C 56% 0.1 mph WSW0.2 kmh WSW 2.5 mph4.0 kmh 29.46 in997.6 mb 0.00 in0.0 mm 0.00 in0.0 mm 0.00 in0.0 mm
10:10 AM 83.7°F28.7°C 66.8°F19.3°C 57% 0.1 mph WSW0.2 kmh WSW 2.5 mph4.0 kmh 29.46 in997.6 mb 0.00 in0.0 mm 0.00 in0.0 mm 0.00 in0.0 mm
10:15 AM 83.7°F28.7°C 66.0°F18.9°C 55% 0.1 mph WSW0.2 kmh WSW 2.5 mph4.0 kmh 29.46 in997.6 mb 0.00 in0.0 mm 0.00 in0.0 mm 0.00 in0.0 mm
10:20 AM 83.8°F28.8°C 66.0°F18.9°C 55% 0.2 mph WSW0.3 kmh WSW 2.5 mph4.0 kmh 29.46 in997.6 mb 0.00 in0.0 mm 0.00 in0.0 mm 0.00 in0.0 mm
10:25 AM 84.0°F28.9°C 65.5°F18.6°C 54% 0.3 mph W0.5 kmh W 2.5 mph4.0 kmh 29.46 in997.6 mb 0.00 in0.0 mm 0.00 in0.0 mm 0.00 in0.0 mm
10:30 AM 84.2°F29.0°C 65.2°F18.4°C 53% 0.3 mph SSW0.5 kmh SSW 2.5 mph4.0 kmh 29.46 in997.6 mb 0.00 in0.0 mm 0.00 in0.0 mm 0.00 in0.0 mm
10:35 AM 84.8°F29.3°C 64.7°F18.2°C 51% 1.1 mph WSW1.8 kmh WSW 4.9 mph7.9 kmh 29.46 in997.6 mb 0.00 in0.0 mm 0.00 in0.0 mm 0.00 in0.0 mm
10:40 AM 85.4°F29.7°C 65.0°F18.3°C 51% 0.4 mph WSW0.6 kmh WSW 2.5 mph4.0 kmh 29.47 in998.0 mb 0.00 in0.0 mm 0.00 in0.0 mm 0.00 in0.0 mm
10:45 AM 85.8°F29.9°C 65.0°F18.3°C 50% 0.5 mph SW0.8 kmh SW 2.5 mph4.0 kmh 29.46 in997.6 mb 0.00 in0.0 mm 0.00 in0.0 mm 0.00 in0.0 mm
10:50 AM 86.4°F30.2°C 65.4°F18.6°C 50% 0.9 mph WSW1.4 kmh WSW 2.5 mph4.0 kmh 29.46 in997.6 mb 0.00 in0.0 mm 0.00 in0.0 mm 0.00 in0.0 mm
10:55 AM 86.8°F30.4°C 65.3°F18.5°C 49% 0.6 mph SW1.0 kmh SW 2.5 mph4.0 kmh 29.46 in997.6 mb 0.00 in0.0 mm 0.00 in0.0 mm 0.00 in0.0 mm
11:00 AM 87.2°F30.7°C 65.8°F18.8°C 49% 0.4 mph SSE0.6 kmh SSE 2.5 mph4.0 kmh 29.46 in997.6 mb 0.00 in0.0 mm 0.00 in0.0 mm 0.00 in0.0 mm
11:05 AM 87.3°F30.7°C 66.1°F18.9°C 50% 0.3 mph WSW0.5 kmh WSW 2.5 mph4.0 kmh 29.46 in997.6 mb 0.00 in0.0 mm 0.00 in0.0 mm 0.00 in0.0 mm
11:10 AM 87.4°F30.8°C 66.2°F19.0°C 50% 0.1 mph WSW0.2 kmh WSW 2.5 mph4.0 kmh 29.46 in997.6 mb 0.00 in0.0 mm 0.00 in0.0 mm 0.00 in0.0 mm
11:15 AM 87.5°F30.8°C 65.9°F18.8°C 49% 0.1 mph W0.2 kmh W 2.5 mph4.0 kmh 29.46 in997.6 mb 0.00 in0.0 mm 0.00 in0.0 mm 0.00 in0.0 mm
11:20 AM 87.8°F31.0°C 64.5°F18.1°C 46% 1.6 mph NW2.6 kmh NW 4.9 mph7.9 kmh 29.46 in997.6 mb 0.00 in0.0 mm 0.00 in0.0 mm 0.00 in0.0 mm
11:25 AM 88.2°F31.2°C 63.9°F17.7°C 45% 1.1 mph NW1.8 kmh NW 4.9 mph7.9 kmh 29.46 in997.6 mb 0.00 in0.0 mm 0.00 in0.0 mm 0.00 in0.0 mm
11:30 AM 88.4°F31.3°C 65.5°F18.6°C 47% 2.3 mph N3.7 kmh N 4.9 mph7.9 kmh 29.46 in997.6 mb 0.00 in0.0 mm 0.00 in0.0 mm 0.00 in0.0 mm
11:35 AM 88.8°F31.6°C 65.7°F18.7°C 47% 1.1 mph W1.8 kmh W 4.9 mph7.9 kmh 29.46 in997.6 mb 0.00 in0.0 mm 0.00 in0.0 mm 0.00 in0.0 mm
11:40 AM 89.1°F31.7°C 64.8°F18.2°C 45% 2.0 mph WNW3.2 kmh WNW 4.9 mph7.9 kmh 29.45 in997.3 mb 0.00 in0.0 mm 0.00 in0.0 mm 0.00 in0.0 mm
11:45 AM 89.4°F31.9°C 64.8°F18.2°C 44% 3.5 mph NNW5.6 kmh NNW 7.4 mph11.9 kmh 29.45 in997.3 mb 0.00 in0.0 mm 0.00 in0.0 mm 0.00 in0.0 mm
11:50 AM 89.6°F32.0°C 66.1°F18.9°C 46% 1.5 mph WNW2.4 kmh WNW 4.9 mph7.9 kmh 29.45 in997.3 mb 0.00 in0.0 mm 0.00 in0.0 mm 0.00 in0.0 mm
11:55 AM 89.9°F32.2°C 65.6°F18.7°C 45% 0.1 mph NW0.2 kmh NW 2.5 mph4.0 kmh 29.45 in997.3 mb 0.00 in0.0 mm 0.00 in0.0 mm 0.00 in0.0 mm
12:00 PM 90.0°F32.2°C 65.3°F18.5°C 44% 1.6 mph WNW2.6 kmh WNW 2.5 mph4.0 kmh 29.45 in997.3 mb 0.00 in0.0 mm 0.00 in0.0 mm 0.00 in0.0 mm
12:05 PM 90.0°F32.2°C 66.4°F19.1°C 46% 0.8 mph WNW1.3 kmh WNW 2.5 mph4.0 kmh 29.45 in997.3 mb 0.00 in0.0 mm 0.00 in0.0 mm 0.00 in0.0 mm
12:10 PM 90.0°F32.2°C 66.4°F19.1°C 46% 0.6 mph WSW1.0 kmh WSW 2.5 mph4.0 kmh 29.45 in997.3 mb 0.00 in0.0 mm 0.00 in0.0 mm 0.00 in0.0 mm
12:15 PM 90.0°F32.2°C 64.9°F18.3°C 44% 1.3 mph S2.1 kmh S 4.9 mph7.9 kmh 29.44 in997.0 mb 0.00 in0.0 mm 0.00 in0.0 mm 0.00 in0.0 mm
12:20 PM 90.3°F32.4°C 63.2°F17.3°C 41% 1.2 mph NNW1.9 kmh NNW 4.9 mph7.9 kmh 29.45 in997.3 mb 0.00 in0.0 mm 0.00 in0.0 mm 0.00 in0.0 mm
12:25 PM 90.6°F32.6°C 64.0°F17.8°C 42% 0.9 mph SSW1.4 kmh SSW 2.5 mph4.0 kmh 29.44 in997.0 mb 0.00 in0.0 mm 0.00 in0.0 mm 0.00 in0.0 mm
12:30 PM 90.9°F32.7°C 63.9°F17.7°C 41% 0.1 mph WNW0.2 kmh WNW 2.5 mph4.0 kmh 29.44 in997.0 mb 0.00 in0.0 mm 0.00 in0.0 mm 0.00 in0.0 mm
12:35 PM 91.0°F32.8°C 64.1°F17.8°C 41% 0.5 mph W0.8 kmh W 2.5 mph4.0 kmh 29.45 in997.3 mb 0.00 in0.0 mm 0.00 in0.0 mm 0.00 in0.0 mm
12:40 PM 91.5°F33.1°C 62.8°F17.1°C 39% 1.8 mph NW2.9 kmh NW 4.9 mph7.9 kmh 29.44 in997.0 mb 0.00 in0.0 mm 0.00 in0.0 mm 0.00 in0.0 mm
12:45 PM 92.2°F33.4°C 62.7°F17.1°C 38% 0.7 mph NNW1.1 kmh NNW 2.5 mph4.0 kmh 29.44 in997.0 mb 0.00 in0.0 mm 0.00 in0.0 mm 0.00 in0.0 mm
12:50 PM 92.7°F33.7°C 64.1°F17.8°C 39% 1.5 mph WNW2.4 kmh WNW 4.9 mph7.9 kmh 29.44 in997.0 mb 0.00 in0.0 mm 0.00 in0.0 mm 0.00 in0.0 mm
12:55 PM 92.6°F33.7°C 64.9°F18.3°C 40% 0.1 mph SW0.2 kmh SW 2.5 mph4.0 kmh 29.44 in997.0 mb 0.00 in0.0 mm 0.00 in0.0 mm 0.00 in0.0 mm
01:00 PM 92.8°F33.8°C 62.1°F16.7°C 36% 0.7 mph WNW1.1 kmh WNW 2.5 mph4.0 kmh 29.44 in997.0 mb 0.00 in0.0 mm 0.00 in0.0 mm 0.00 in0.0 mm
01:05 PM 93.0°F33.9°C 62.4°F16.9°C 36% 0.7 mph NW1.1 kmh NW 2.5 mph4.0 kmh 29.43 in996.6 mb 0.00 in0.0 mm 0.00 in0.0 mm 0.00 in0.0 mm
01:10 PM 93.2°F34.0°C 62.2°F16.8°C 36% 0.3 mph SSW0.5 kmh SSW 2.5 mph4.0 kmh 29.43 in996.6 mb 0.00 in0.0 mm 0.00 in0.0 mm 0.00 in0.0 mm
01:15 PM 93.2°F34.0°C 62.6°F17.0°C 36% 1.6 mph NW2.6 kmh NW 7.4 mph11.9 kmh 29.42 in996.3 mb 0.00 in0.0 mm 0.00 in0.0 mm 0.00 in0.0 mm
01:20 PM 93.4°F34.1°C 61.6°F16.4°C 35% 1.6 mph N2.6 kmh N 2.5 mph4.0 kmh 29.43 in996.6 mb 0.00 in0.0 mm 0.00 in0.0 mm 0.00 in0.0 mm
01:25 PM 93.8°F34.3°C 61.7°F16.5°C 35% 2.2 mph N3.5 kmh N 4.9 mph7.9 kmh 29.42 in996.3 mb 0.00 in0.0 mm 0.00 in0.0 mm 0.00 in0.0 mm
01:30 PM 93.8°F34.3°C 62.2°F16.8°C 35% 1.0 mph NNW1.6 kmh NNW 4.9 mph7.9 kmh 29.41 in995.9 mb 0.00 in0.0 mm 0.00 in0.0 mm 0.00 in0.0 mm
01:35 PM 93.8°F34.3°C 61.6°F16.4°C 35% Calm Calm -- 29.42 in996.3 mb 0.00 in0.0 mm 0.00 in0.0 mm 0.00 in0.0 mm
01:40 PM 94.1°F34.5°C 61.6°F16.4°C 34% 0.6 mph W1.0 kmh W 2.5 mph4.0 kmh 29.41 in995.9 mb 0.00 in0.0 mm 0.00 in0.0 mm 0.00 in0.0 mm
01:45 PM 94.2°F34.6°C 61.4°F16.3°C 34% 2.1 mph NNW3.4 kmh NNW 7.4 mph11.9 kmh 29.41 in995.9 mb 0.00 in0.0 mm 0.00 in0.0 mm 0.00 in0.0 mm
01:50 PM 94.4°F34.7°C 62.2°F16.8°C 35% 2.8 mph N4.5 kmh N 4.9 mph7.9 kmh 29.41 in995.9 mb 0.00 in0.0 mm 0.00 in0.0 mm 0.00 in0.0 mm
01:55 PM 94.3°F34.6°C 62.2°F16.8°C 35% 1.7 mph NW2.7 kmh NW 4.9 mph7.9 kmh 29.40 in995.6 mb 0.00 in0.0 mm 0.00 in0.0 mm 0.00 in0.0 mm
02:00 PM 94.6°F34.8°C 62.1°F16.7°C 34% 2.5 mph NNE4.0 kmh NNE 4.9 mph7.9 kmh 29.41 in995.9 mb 0.00 in0.0 mm 0.00 in0.0 mm 0.00 in0.0 mm
02:05 PM 94.8°F34.9°C 61.7°F16.5°C 34% 0.4 mph NW0.6 kmh NW 2.5 mph4.0 kmh 29.40 in995.6 mb 0.00 in0.0 mm 0.00 in0.0 mm 0.00 in0.0 mm
02:10 PM 94.7°F34.8°C 60.8°F16.0°C 33% 2.4 mph NE3.9 kmh NE 4.9 mph7.9 kmh 29.40 in995.6 mb 0.00 in0.0 mm 0.00 in0.0 mm 0.00 in0.0 mm
02:15 PM 95.1°F35.1°C 59.4°F15.2°C 31% 1.7 mph ESE2.7 kmh ESE 2.5 mph4.0 kmh 29.39 in995.3 mb 0.00 in0.0 mm 0.00 in0.0 mm 0.00 in0.0 mm
02:20 PM 95.5°F35.3°C 60.4°F15.8°C 32% 0.3 mph W0.5 kmh W 2.5 mph4.0 kmh 29.39 in995.3 mb 0.00 in0.0 mm 0.00 in0.0 mm 0.00 in0.0 mm
02:25 PM 95.8°F35.4°C 59.9°F15.5°C 31% 1.3 mph W2.1 kmh W 4.9 mph7.9 kmh 29.39 in995.3 mb 0.00 in0.0 mm 0.00 in0.0 mm 0.00 in0.0 mm
02:30 PM 96.1°F35.6°C 59.9°F15.5°C 30% 0.7 mph SSW1.1 kmh SSW 2.5 mph4.0 kmh 29.39 in995.3 mb 0.00 in0.0 mm 0.00 in0.0 mm 0.00 in0.0 mm
02:35 PM 96.5°F35.8°C 60.0°F15.6°C 30% 1.1 mph NW1.8 kmh NW 2.5 mph4.0 kmh 29.38 in994.9 mb 0.00 in0.0 mm 0.00 in0.0 mm 0.00 in0.0 mm
02:40 PM 97.1°F36.2°C 60.7°F15.9°C 30% 0.5 mph WNW0.8 kmh WNW 2.5 mph4.0 kmh 29.38 in994.9 mb 0.00 in0.0 mm 0.00 in0.0 mm 0.00 in0.0 mm
02:45 PM 97.2°F36.2°C 60.8°F16.0°C 30% 1.9 mph NNW3.1 kmh NNW 4.9 mph7.9 kmh 29.38 in994.9 mb 0.00 in0.0 mm 0.00 in0.0 mm 0.00 in0.0 mm
02:50 PM 97.1°F36.2°C 61.4°F16.3°C 31% 1.4 mph NW2.3 kmh NW 4.9 mph7.9 kmh 29.38 in994.9 mb 0.00 in0.0 mm 0.00 in0.0 mm 0.00 in0.0 mm
02:55 PM 97.2°F36.2°C 61.5°F16.4°C 31% 1.0 mph W1.6 kmh W 4.9 mph7.9 kmh 29.37 in994.6 mb 0.00 in0.0 mm 0.00 in0.0 mm 0.00 in0.0 mm
03:00 PM 97.3°F36.3°C 60.3°F15.7°C 30% 1.3 mph W2.1 kmh W 4.9 mph7.9 kmh 29.38 in994.9 mb 0.00 in0.0 mm 0.00 in0.0 mm 0.00 in0.0 mm
03:05 PM 97.3°F36.3°C 60.6°F15.9°C 30% 1.9 mph W3.1 kmh W 7.4 mph11.9 kmh 29.37 in994.6 mb 0.00 in0.0 mm 0.00 in0.0 mm 0.00 in0.0 mm
03:10 PM 97.3°F36.3°C 60.4°F15.8°C 30% 0.7 mph WSW1.1 kmh WSW 2.5 mph4.0 kmh 29.36 in994.2 mb 0.00 in0.0 mm 0.00 in0.0 mm 0.00 in0.0 mm
03:15 PM 97.4°F36.3°C 59.8°F15.4°C 29% 1.6 mph NNW2.6 kmh NNW 4.9 mph7.9 kmh 29.36 in994.2 mb 0.00 in0.0 mm 0.00 in0.0 mm 0.00 in0.0 mm
03:20 PM 97.8°F36.6°C 60.1°F15.6°C 29% 2.8 mph NNW4.5 kmh NNW 7.4 mph11.9 kmh 29.35 in993.9 mb 0.00 in0.0 mm 0.00 in0.0 mm 0.00 in0.0 mm
03:25 PM 98.0°F36.7°C 60.9°F16.1°C 30% 0.1 mph W0.2 kmh W 2.5 mph4.0 kmh 29.36 in994.2 mb 0.00 in0.0 mm 0.00 in0.0 mm 0.00 in0.0 mm
03:30 PM 98.1°F36.7°C 60.0°F15.6°C 29% 2.0 mph SSE3.2 kmh SSE 7.4 mph11.9 kmh 29.36 in994.2 mb 0.00 in0.0 mm 0.00 in0.0 mm 0.00 in0.0 mm
03:35 PM 98.3°F36.8°C 60.1°F15.6°C 28% 1.5 mph SSE2.4 kmh SSE 4.9 mph7.9 kmh 29.35 in993.9 mb 0.00 in0.0 mm 0.00 in0.0 mm 0.00 in0.0 mm
03:40 PM 98.6°F37.0°C 59.8°F15.4°C 28% 1.3 mph SSW2.1 kmh SSW 2.5 mph4.0 kmh 29.35 in993.9 mb 0.00 in0.0 mm 0.00 in0.0 mm 0.00 in0.0 mm
03:45 PM 98.9°F37.2°C 59.3°F15.2°C 27% 1.7 mph S2.7 kmh S 4.9 mph7.9 kmh 29.35 in993.9 mb 0.00 in0.0 mm 0.00 in0.0 mm 0.00 in0.0 mm
03:50 PM 99.0°F37.2°C 59.6°F15.3°C 28% 1.3 mph NW2.1 kmh NW 4.9 mph7.9 kmh 29.35 in993.9 mb 0.00 in0.0 mm 0.00 in0.0 mm 0.00 in0.0 mm
03:55 PM 99.3°F37.4°C 59.7°F15.4°C 27% 1.4 mph NW2.3 kmh NW 4.9 mph7.9 kmh 29.34 in993.6 mb 0.00 in0.0 mm 0.00 in0.0 mm 0.00 in0.0 mm
04:00 PM 99.3°F37.4°C 60.0°F15.6°C 28% 0.2 mph WSW0.3 kmh WSW 2.5 mph4.0 kmh 29.34 in993.6 mb 0.00 in0.0 mm 0.00 in0.0 mm 0.00 in0.0 mm
04:05 PM 99.7°F37.6°C 59.1°F15.1°C 26% 1.8 mph SW2.9 kmh SW 7.4 mph11.9 kmh 29.34 in993.6 mb 0.00 in0.0 mm 0.00 in0.0 mm 0.00 in0.0 mm
04:10 PM 100.3°F37.9°C 57.6°F14.2°C 25% 0.1 mph W0.2 kmh W 2.5 mph4.0 kmh 29.34 in993.6 mb 0.00 in0.0 mm 0.00 in0.0 mm 0.00 in0.0 mm
04:15 PM 100.7°F38.2°C 57.6°F14.2°C 24% 0.6 mph W1.0 kmh W 2.5 mph4.0 kmh 29.33 in993.2 mb 0.00 in0.0 mm 0.00 in0.0 mm 0.00 in0.0 mm
04:20 PM 73.6°F23.1°C 71.8°F22.1°C 94% Calm Calm -- 29.35 in993.9 mb 0.00 in0.0 mm 0.00 in0.0 mm 0.00 in0.0 mm
04:25 PM 73.6°F23.1°C 71.8°F22.1°C 94% Calm Calm -- 29.35 in993.9 mb 0.00 in0.0 mm 0.00 in0.0 mm 0.00 in0.0 mm
04:30 PM 102.4°F39.1°C 59.8°F15.4°C 25% 1.0 mph SE1.6 kmh SE 2.5 mph4.0 kmh 29.34 in993.6 mb 0.00 in0.0 mm 0.00 in0.0 mm 0.00 in0.0 mm
04:35 PM 102.2°F39.0°C 60.5°F15.8°C 26% 0.6 mph NNE1.0 kmh NNE 4.9 mph7.9 kmh 29.33 in993.2 mb 0.00 in0.0 mm 0.00 in0.0 mm 0.00 in0.0 mm
04:40 PM 101.6°F38.7°C 63.7°F17.6°C 29% 2.6 mph NNE4.2 kmh NNE 4.9 mph7.9 kmh 29.33 in993.2 mb 0.00 in0.0 mm 0.00 in0.0 mm 0.00 in0.0 mm
04:45 PM 100.7°F38.2°C 64.5°F18.1°C 31% Calm Calm -- 29.32 in992.9 mb 0.00 in0.0 mm 0.00 in0.0 mm 0.00 in0.0 mm
04:50 PM 99.2°F37.3°C 64.1°F17.8°C 32% 1.7 mph WNW2.7 kmh WNW 4.9 mph7.9 kmh 29.34 in993.6 mb 0.00 in0.0 mm 0.00 in0.0 mm 0.00 in0.0 mm
04:55 PM 97.6°F36.4°C 70.8°F21.6°C 42% 3.4 mph WSW5.5 kmh WSW 17.4 mph28.0 kmh 29.34 in993.6 mb 0.00 in0.0 mm 0.00 in0.0 mm 0.00 in0.0 mm
05:00 PM 95.3°F35.2°C 72.4°F22.4°C 48% 4.5 mph WSW7.2 kmh WSW 17.4 mph28.0 kmh 29.35 in993.9 mb 0.00 in0.0 mm 0.00 in0.0 mm 0.00 in0.0 mm
05:05 PM 92.5°F33.6°C 75.7°F24.3°C 58% 5.8 mph WSW9.3 kmh WSW 9.8 mph15.8 kmh 29.36 in994.2 mb 0.00 in0.0 mm 0.00 in0.0 mm 0.00 in0.0 mm
06:55 PM 73.7°F23.2°C 71.9°F22.2°C 94% Calm Calm -- 29.35 in993.9 mb 0.00 in0.0 mm 0.00 in0.0 mm 0.00 in0.0 mm
07:00 PM 73.8°F23.2°C 72.0°F22.2°C 94% Calm Calm -- 29.35 in993.9 mb 0.00 in0.0 mm 0.00 in0.0 mm 0.00 in0.0 mm
07:05 PM 73.8°F23.2°C 71.8°F22.1°C 93% 0.5 mph NE0.8 kmh NE 2.5 mph4.0 kmh 29.35 in993.9 mb 0.00 in0.0 mm 0.00 in0.0 mm 0.00 in0.0 mm
07:10 PM 74.3°F23.5°C 72.2°F22.3°C 93% 0.2 mph E0.3 kmh E 2.5 mph4.0 kmh 29.36 in994.2 mb 0.00 in0.0 mm 0.00 in0.0 mm 0.00 in0.0 mm
07:15 PM 74.7°F23.7°C 72.5°F22.5°C 93% 1.1 mph E1.8 kmh E 4.9 mph7.9 kmh 29.36 in994.2 mb 0.00 in0.0 mm 0.00 in0.0 mm 0.00 in0.0 mm
07:20 PM 74.7°F23.7°C 72.0°F22.2°C 91% 0.1 mph SE0.2 kmh SE 2.5 mph4.0 kmh 29.36 in994.2 mb 0.00 in0.0 mm 0.00 in0.0 mm 0.00 in0.0 mm
07:25 PM 74.7°F23.7°C 71.4°F21.9°C 89% 0.4 mph ENE0.6 kmh ENE 4.9 mph7.9 kmh 29.36 in994.2 mb 0.00 in0.0 mm 0.00 in0.0 mm 0.00 in0.0 mm
07:30 PM 75.7°F24.3°C 71.6°F22.0°C 87% Calm Calm -- 29.36 in994.2 mb 0.00 in0.0 mm 0.00 in0.0 mm 0.00 in0.0 mm
07:35 PM 76.5°F24.7°C 71.4°F21.9°C 84% 0.7 mph WSW1.1 kmh WSW 2.5 mph4.0 kmh 29.36 in994.2 mb 0.00 in0.0 mm 0.00 in0.0 mm 0.00 in0.0 mm
07:40 PM 76.5°F24.7°C 71.7°F22.1°C 85% 1.0 mph WSW1.6 kmh WSW 4.9 mph7.9 kmh 29.38 in994.9 mb 0.00 in0.0 mm 0.00 in0.0 mm 0.00 in0.0 mm
07:45 PM 76.6°F24.8°C 72.1°F22.3°C 86% 1.1 mph NNE1.8 kmh NNE 4.9 mph7.9 kmh 29.37 in994.6 mb 0.00 in0.0 mm 0.00 in0.0 mm 0.00 in0.0 mm
07:50 PM 77.0°F25.0°C 72.2°F22.3°C 85% 0.2 mph W0.3 kmh W 2.5 mph4.0 kmh 29.37 in994.6 mb 0.00 in0.0 mm 0.00 in0.0 mm 0.00 in0.0 mm
07:55 PM 77.2°F25.1°C 72.7°F22.6°C 86% 0.1 mph W0.2 kmh W 2.5 mph4.0 kmh 29.37 in994.6 mb 0.00 in0.0 mm 0.00 in0.0 mm 0.00 in0.0 mm
08:00 PM 77.2°F25.1°C 72.5°F22.5°C 86% Calm Calm -- 29.37 in994.6 mb 0.00 in0.0 mm 0.00 in0.0 mm 0.00 in0.0 mm
08:05 PM 77.2°F25.1°C 72.7°F22.6°C 86% Calm Calm -- 29.36 in994.2 mb 0.00 in0.0 mm 0.00 in0.0 mm 0.00 in0.0 mm
08:10 PM 77.2°F25.1°C 73.0°F22.8°C 87% Calm Calm -- 29.37 in994.6 mb 0.00 in0.0 mm 0.00 in0.0 mm 0.00 in0.0 mm
08:15 PM 77.2°F25.1°C 73.3°F22.9°C 88% Calm Calm -- 29.37 in994.6 mb 0.00 in0.0 mm 0.00 in0.0 mm 0.00 in0.0 mm
08:20 PM 77.0°F25.0°C 72.9°F22.7°C 87% Calm Calm -- 29.36 in994.2 mb 0.00 in0.0 mm 0.00 in0.0 mm 0.00 in0.0 mm
08:25 PM 77.0°F25.0°C 72.6°F22.6°C 86% Calm Calm -- 29.37 in994.6 mb 0.00 in0.0 mm 0.00 in0.0 mm 0.00 in0.0 mm
08:30 PM 77.1°F25.1°C 72.6°F22.6°C 86% Calm Calm -- 29.38 in994.9 mb 0.00 in0.0 mm 0.00 in0.0 mm 0.00 in0.0 mm
08:35 PM 77.2°F25.1°C 72.7°F22.6°C 86% Calm Calm -- 29.38 in994.9 mb 0.00 in0.0 mm 0.00 in0.0 mm 0.00 in0.0 mm
08:40 PM 77.2°F25.1°C 73.0°F22.8°C 87% Calm Calm -- 29.38 in994.9 mb 0.00 in0.0 mm 0.00 in0.0 mm 0.00 in0.0 mm
08:45 PM 77.0°F25.0°C 72.8°F22.7°C 87% Calm Calm -- 29.38 in994.9 mb 0.00 in0.0 mm 0.00 in0.0 mm 0.00 in0.0 mm
08:50 PM 77.0°F25.0°C 72.9°F22.7°C 87% Calm Calm -- 29.38 in994.9 mb 0.00 in0.0 mm 0.00 in0.0 mm 0.00 in0.0 mm
08:55 PM 77.0°F25.0°C 72.8°F22.7°C 87% Calm Calm -- 29.39 in995.3 mb 0.00 in0.0 mm 0.00 in0.0 mm 0.00 in0.0 mm
09:00 PM 77.1°F25.1°C 72.1°F22.3°C 85% Calm Calm 2.5 mph4.0 kmh 29.40 in995.6 mb 0.00 in0.0 mm 0.00 in0.0 mm 0.00 in0.0 mm
09:05 PM 77.3°F25.2°C 72.0°F22.2°C 84% 0.1 mph W0.2 kmh W 2.5 mph4.0 kmh 29.39 in995.3 mb 0.00 in0.0 mm 0.00 in0.0 mm 0.00 in0.0 mm
09:10 PM 77.8°F25.4°C 72.0°F22.2°C 82% 0.1 mph WNW0.2 kmh WNW 2.5 mph4.0 kmh 29.39 in995.3 mb 0.00 in0.0 mm 0.00 in0.0 mm 0.00 in0.0 mm
09:15 PM 78.6°F25.9°C 72.1°F22.3°C 81% 0.1 mph NNW0.2 kmh NNW 2.5 mph4.0 kmh 29.39 in995.3 mb 0.00 in0.0 mm 0.00 in0.0 mm 0.00 in0.0 mm
09:20 PM 78.6°F25.9°C 71.5°F21.9°C 79% 0.3 mph NE0.5 kmh NE 2.5 mph4.0 kmh 29.40 in995.6 mb 0.00 in0.0 mm 0.00 in0.0 mm 0.00 in0.0 mm
09:25 PM 78.6°F25.9°C 70.9°F21.6°C 77% 0.8 mph N1.3 kmh N 4.9 mph7.9 kmh 29.39 in995.3 mb 0.00 in0.0 mm 0.00 in0.0 mm 0.00 in0.0 mm
09:30 PM 78.6°F25.9°C 71.1°F21.7°C 78% 0.1 mph NW0.2 kmh NW 2.5 mph4.0 kmh 29.39 in995.3 mb 0.00 in0.0 mm 0.00 in0.0 mm 0.00 in0.0 mm
09:35 PM 78.6°F25.9°C 71.4°F21.9°C 79% Calm Calm -- 29.39 in995.3 mb 0.00 in0.0 mm 0.00 in0.0 mm 0.00 in0.0 mm
09:40 PM 78.6°F25.9°C 71.9°F22.2°C 80% Calm Calm -- 29.39 in995.3 mb 0.00 in0.0 mm 0.00 in0.0 mm 0.00 in0.0 mm
09:45 PM 78.4°F25.8°C 72.2°F22.3°C 81% Calm Calm -- 29.39 in995.3 mb 0.00 in0.0 mm 0.00 in0.0 mm 0.00 in0.0 mm
09:50 PM 78.0°F25.6°C 72.5°F22.5°C 83% Calm Calm -- 29.39 in995.3 mb 0.00 in0.0 mm 0.00 in0.0 mm 0.00 in0.0 mm
09:55 PM 77.2°F25.1°C 72.0°F22.2°C 84% Calm Calm -- 29.39 in995.3 mb 0.00 in0.0 mm 0.00 in0.0 mm 0.00 in0.0 mm
10:00 PM 77.2°F25.1°C 71.9°F22.2°C 84% Calm Calm -- 29.39 in995.3 mb 0.00 in0.0 mm 0.00 in0.0 mm 0.00 in0.0 mm
10:05 PM 77.0°F25.0°C 71.8°F22.1°C 84% Calm Calm -- 29.39 in995.3 mb 0.00 in0.0 mm 0.00 in0.0 mm 0.00 in0.0 mm
10:10 PM 77.0°F25.0°C 72.1°F22.3°C 85% Calm Calm -- 29.39 in995.3 mb 0.00 in0.0 mm 0.00 in0.0 mm 0.00 in0.0 mm
10:15 PM 77.0°F25.0°C 72.0°F22.2°C 85% Calm Calm -- 29.39 in995.3 mb 0.00 in0.0 mm 0.00 in0.0 mm 0.00 in0.0 mm
10:20 PM 77.0°F25.0°C 71.8°F22.1°C 84% Calm Calm -- 29.39 in995.3 mb 0.00 in0.0 mm 0.00 in0.0 mm 0.00 in0.0 mm
10:25 PM 77.0°F25.0°C 71.8°F22.1°C 84% Calm Calm -- 29.39 in995.3 mb 0.00 in0.0 mm 0.00 in0.0 mm 0.00 in0.0 mm
10:30 PM 77.0°F25.0°C 71.8°F22.1°C 84% Calm Calm -- 29.39 in995.3 mb 0.00 in0.0 mm 0.00 in0.0 mm 0.00 in0.0 mm
10:35 PM 77.2°F25.1°C 71.6°F22.0°C 83% 0.7 mph SE1.1 kmh SE 2.5 mph4.0 kmh 29.40 in995.6 mb 0.00 in0.0 mm 0.00 in0.0 mm 0.00 in0.0 mm
10:40 PM 77.2°F25.1°C 71.3°F21.8°C 82% 0.2 mph SE0.3 kmh SE 2.5 mph4.0 kmh 29.39 in995.3 mb 0.00 in0.0 mm 0.00 in0.0 mm 0.00 in0.0 mm
10:45 PM 77.2°F25.1°C 70.8°F21.6°C 81% 0.8 mph SSE1.3 kmh SSE 2.5 mph4.0 kmh 29.40 in995.6 mb 0.00 in0.0 mm 0.00 in0.0 mm 0.00 in0.0 mm
10:50 PM 77.2°F25.1°C 70.5°F21.4°C 80% 1.5 mph SSE2.4 kmh SSE 4.9 mph7.9 kmh 29.40 in995.6 mb 0.00 in0.0 mm 0.00 in0.0 mm 0.00 in0.0 mm
10:55 PM 77.2°F25.1°C 70.5°F21.4°C 80% 3.4 mph S5.5 kmh S 7.4 mph11.9 kmh 29.39 in995.3 mb 0.00 in0.0 mm 0.00 in0.0 mm 0.00 in0.0 mm
11:00 PM 77.2°F25.1°C 70.5°F21.4°C 80% 2.1 mph SSE3.4 kmh SSE 4.9 mph7.9 kmh 29.40 in995.6 mb 0.00 in0.0 mm 0.00 in0.0 mm 0.00 in0.0 mm
11:05 PM 77.2°F25.1°C 70.5°F21.4°C 80% 3.2 mph SSE5.1 kmh SSE 4.9 mph7.9 kmh 29.40 in995.6 mb 0.00 in0.0 mm 0.00 in0.0 mm 0.00 in0.0 mm
11:10 PM 77.2°F25.1°C 70.5°F21.4°C 80% 3.2 mph SE5.1 kmh SE 4.9 mph7.9 kmh 29.40 in995.6 mb 0.00 in0.0 mm 0.00 in0.0 mm 0.00 in0.0 mm
11:15 PM 77.2°F25.1°C 70.5°F21.4°C 80% 2.7 mph SSE4.3 kmh SSE 4.9 mph7.9 kmh 29.40 in995.6 mb 0.00 in0.0 mm 0.00 in0.0 mm 0.00 in0.0 mm
11:20 PM 77.2°F25.1°C 70.5°F21.4°C 80% 1.4 mph S2.3 kmh S 4.9 mph7.9 kmh 29.40 in995.6 mb 0.00 in0.0 mm 0.00 in0.0 mm 0.00 in0.0 mm
11:25 PM 77.2°F25.1°C 70.6°F21.4°C 80% 1.2 mph S1.9 kmh S 2.5 mph4.0 kmh 29.41 in995.9 mb 0.00 in0.0 mm 0.00 in0.0 mm 0.00 in0.0 mm
11:30 PM 77.2°F25.1°C 70.9°F21.6°C 81% 1.4 mph S2.3 kmh S 2.5 mph4.0 kmh 29.41 in995.9 mb 0.00 in0.0 mm 0.00 in0.0 mm 0.00 in0.0 mm
11:35 PM 77.2°F25.1°C 70.7°F21.5°C 80% 2.3 mph S3.7 kmh S 4.9 mph7.9 kmh 29.40 in995.6 mb 0.00 in0.0 mm 0.00 in0.0 mm 0.00 in0.0 mm
11:40 PM 77.2°F25.1°C 70.3°F21.3°C 79% 1.6 mph S2.6 kmh S 4.9 mph7.9 kmh 29.41 in995.9 mb 0.00 in0.0 mm 0.00 in0.0 mm 0.00 in0.0 mm
11:45 PM 77.2°F25.1°C 69.6°F20.9°C 78% 2.6 mph S4.2 kmh S 4.9 mph7.9 kmh 29.40 in995.6 mb 0.00 in0.0 mm 0.00 in0.0 mm 0.00 in0.0 mm
11:50 PM 77.2°F25.1°C 69.3°F20.7°C 77% 3.5 mph S5.6 kmh S 4.9 mph7.9 kmh 29.41 in995.9 mb 0.00 in0.0 mm 0.00 in0.0 mm 0.00 in0.0 mm
11:55 PM 78.3°F25.7°C 70.0°F21.1°C 76% 1.8 mph S2.9 kmh S 4.9 mph7.9 kmh 29.41 in995.9 mb 0.00 in0.0 mm 0.00 in0.0 mm 0.00 in0.0 mm